sensor_id;sensor_type;location;lat;lon;timestamp;P1;durP1;ratioP1;P2;durP2;ratioP2
39554;SDS011;25231;48.746;9.234;2022-10-16T00:00:35;12.57;;;11.87;;
39554;SDS011;25231;48.746;9.234;2022-10-16T00:03:01;12.60;;;12.00;;
39554;SDS011;25231;48.746;9.234;2022-10-16T00:05:29;12.50;;;11.77;;
39554;SDS011;25231;48.746;9.234;2022-10-16T00:07:54;12.70;;;11.97;;
39554;SDS011;25231;48.746;9.234;2022-10-16T00:10:20;11.17;;;10.57;;
39554;SDS011;25231;48.746;9.234;2022-10-16T00:12:45;9.93;;;9.30;;
39554;SDS011;25231;48.746;9.234;2022-10-16T00:15:11;10.13;;;9.53;;
39554;SDS011;25231;48.746;9.234;2022-10-16T00:17:37;15.27;;;14.27;;
39554;SDS011;25231;48.746;9.234;2022-10-16T00:20:02;15.50;;;14.37;;
39554;SDS011;25231;48.746;9.234;2022-10-16T00:22:28;15.23;;;14.43;;
39554;SDS011;25231;48.746;9.234;2022-10-16T00:24:53;14.77;;;13.97;;
39554;SDS011;25231;48.746;9.234;2022-10-16T00:27:19;14.23;;;13.33;;
39554;SDS011;25231;48.746;9.234;2022-10-16T00:29:44;10.60;;;10.00;;
39554;SDS011;25231;48.746;9.234;2022-10-16T00:32:09;10.23;;;9.63;;
39554;SDS011;25231;48.746;9.234;2022-10-16T00:34:35;11.30;;;10.60;;
39554;SDS011;25231;48.746;9.234;2022-10-16T00:37:00;12.77;;;12.07;;
39554;SDS011;25231;48.746;9.234;2022-10-16T00:39:26;13.30;;;12.50;;
39554;SDS011;25231;48.746;9.234;2022-10-16T00:41:51;14.00;;;13.03;;
39554;SDS011;25231;48.746;9.234;2022-10-16T00:47:11;11.23;;;10.63;;
39554;SDS011;25231;48.746;9.234;2022-10-16T00:49:42;15.43;;;14.50;;
39554;SDS011;25231;48.746;9.234;2022-10-16T00:52:08;15.93;;;15.07;;
39554;SDS011;25231;48.746;9.234;2022-10-16T00:54:35;15.73;;;14.93;;
39554;SDS011;25231;48.746;9.234;2022-10-16T00:57:01;12.33;;;11.53;;
39554;SDS011;25231;48.746;9.234;2022-10-16T00:59:31;12.80;;;11.80;;
39554;SDS011;25231;48.746;9.234;2022-10-16T01:02:02;15.43;;;14.33;;
39554;SDS011;25231;48.746;9.234;2022-10-16T01:04:30;12.80;;;11.97;;
39554;SDS011;25231;48.746;9.234;2022-10-16T01:07:03;11.97;;;11.07;;
39554;SDS011;25231;48.746;9.234;2022-10-16T01:15:26;12.43;;;10.10;;
39554;SDS011;25231;48.746;9.234;2022-10-16T01:21:01;10.03;;;9.33;;
39554;SDS011;25231;48.746;9.234;2022-10-16T01:23:43;10.83;;;10.23;;
39554;SDS011;25231;48.746;9.234;2022-10-16T01:29:08;12.03;;;11.37;;
39554;SDS011;25231;48.746;9.234;2022-10-16T01:31:40;10.87;;;10.07;;
39554;SDS011;25231;48.746;9.234;2022-10-16T01:36:47;12.10;;;11.40;;
39554;SDS011;25231;48.746;9.234;2022-10-16T01:39:19;11.77;;;11.07;;
39554;SDS011;25231;48.746;9.234;2022-10-16T01:41:54;11.07;;;10.43;;
39554;SDS011;25231;48.746;9.234;2022-10-16T01:44:31;10.20;;;9.50;;
39554;SDS011;25231;48.746;9.234;2022-10-16T01:46:59;13.20;;;12.40;;
39554;SDS011;25231;48.746;9.234;2022-10-16T01:49:26;13.00;;;12.03;;
39554;SDS011;25231;48.746;9.234;2022-10-16T01:51:56;12.73;;;11.73;;
39554;SDS011;25231;48.746;9.234;2022-10-16T01:54:25;10.97;;;10.20;;
39554;SDS011;25231;48.746;9.234;2022-10-16T01:56:55;10.07;;;9.27;;
39554;SDS011;25231;48.746;9.234;2022-10-16T01:59:23;10.80;;;9.80;;
39554;SDS011;25231;48.746;9.234;2022-10-16T02:01:54;13.17;;;12.37;;
39554;SDS011;25231;48.746;9.234;2022-10-16T02:04:26;12.67;;;11.87;;
39554;SDS011;25231;48.746;9.234;2022-10-16T02:06:55;11.20;;;10.60;;
39554;SDS011;25231;48.746;9.234;2022-10-16T02:09:20;13.07;;;12.27;;
39554;SDS011;25231;48.746;9.234;2022-10-16T02:11:46;15.03;;;14.20;;
39554;SDS011;25231;48.746;9.234;2022-10-16T02:14:14;14.13;;;13.33;;
39554;SDS011;25231;48.746;9.234;2022-10-16T02:16:44;13.57;;;12.87;;
39554;SDS011;25231;48.746;9.234;2022-10-16T02:19:11;14.87;;;13.97;;
39554;SDS011;25231;48.746;9.234;2022-10-16T02:21:47;14.30;;;13.20;;
39554;SDS011;25231;48.746;9.234;2022-10-16T02:24:33;13.30;;;12.33;;
39554;SDS011;25231;48.746;9.234;2022-10-16T02:30:00;10.27;;;9.67;;
39554;SDS011;25231;48.746;9.234;2022-10-16T02:32:59;12.93;;;12.13;;
39554;SDS011;25231;48.746;9.234;2022-10-16T02:35:27;13.73;;;12.93;;
39554;SDS011;25231;48.746;9.234;2022-10-16T02:37:54;12.70;;;12.00;;
39554;SDS011;25231;48.746;9.234;2022-10-16T02:40:22;13.47;;;12.67;;
39554;SDS011;25231;48.746;9.234;2022-10-16T02:42:50;14.97;;;13.73;;
39554;SDS011;25231;48.746;9.234;2022-10-16T02:45:16;13.73;;;12.77;;
39554;SDS011;25231;48.746;9.234;2022-10-16T02:47:42;14.50;;;13.70;;
39554;SDS011;25231;48.746;9.234;2022-10-16T02:50:08;12.23;;;11.43;;
39554;SDS011;25231;48.746;9.234;2022-10-16T02:52:33;11.40;;;10.80;;
39554;SDS011;25231;48.746;9.234;2022-10-16T02:54:59;14.37;;;13.60;;
39554;SDS011;25231;48.746;9.234;2022-10-16T02:57:24;14.60;;;13.70;;
39554;SDS011;25231;48.746;9.234;2022-10-16T02:59:49;14.30;;;13.37;;
39554;SDS011;25231;48.746;9.234;2022-10-16T03:02:15;11.67;;;11.03;;
39554;SDS011;25231;48.746;9.234;2022-10-16T03:04:40;13.60;;;12.83;;
39554;SDS011;25231;48.746;9.234;2022-10-16T03:07:06;13.43;;;12.73;;
39554;SDS011;25231;48.746;9.234;2022-10-16T03:09:31;16.80;;;15.60;;
39554;SDS011;25231;48.746;9.234;2022-10-16T03:11:56;15.37;;;14.47;;
39554;SDS011;25231;48.746;9.234;2022-10-16T03:14:22;15.13;;;14.23;;
39554;SDS011;25231;48.746;9.234;2022-10-16T03:16:47;15.17;;;14.33;;
39554;SDS011;25231;48.746;9.234;2022-10-16T03:19:13;16.23;;;15.33;;
39554;SDS011;25231;48.746;9.234;2022-10-16T03:21:38;14.97;;;13.97;;
39554;SDS011;25231;48.746;9.234;2022-10-16T03:24:04;14.43;;;13.63;;
39554;SDS011;25231;48.746;9.234;2022-10-16T03:26:29;14.83;;;14.03;;
39554;SDS011;25231;48.746;9.234;2022-10-16T03:28:55;14.10;;;13.00;;
39554;SDS011;25231;48.746;9.234;2022-10-16T03:31:20;10.17;;;9.67;;
39554;SDS011;25231;48.746;9.234;2022-10-16T03:33:45;9.80;;;9.10;;
39554;SDS011;25231;48.746;9.234;2022-10-16T03:36:11;9.63;;;8.87;;
39554;SDS011;25231;48.746;9.234;2022-10-16T03:38:36;8.00;;;7.53;;
39554;SDS011;25231;48.746;9.234;2022-10-16T03:41:01;9.43;;;8.93;;
39554;SDS011;25231;48.746;9.234;2022-10-16T03:43:27;9.97;;;9.47;;
39554;SDS011;25231;48.746;9.234;2022-10-16T03:45:53;9.57;;;8.97;;
39554;SDS011;25231;48.746;9.234;2022-10-16T03:48:18;9.87;;;9.17;;
39554;SDS011;25231;48.746;9.234;2022-10-16T03:50:44;10.30;;;9.70;;
39554;SDS011;25231;48.746;9.234;2022-10-16T03:53:11;8.63;;;8.13;;
39554;SDS011;25231;48.746;9.234;2022-10-16T03:55:37;10.23;;;9.53;;
39554;SDS011;25231;48.746;9.234;2022-10-16T03:58:02;9.27;;;8.77;;
39554;SDS011;25231;48.746;9.234;2022-10-16T04:00:27;8.33;;;7.93;;
39554;SDS011;25231;48.746;9.234;2022-10-16T04:02:53;10.27;;;9.67;;
39554;SDS011;25231;48.746;9.234;2022-10-16T04:05:19;12.20;;;11.33;;
39554;SDS011;25231;48.746;9.234;2022-10-16T04:07:44;10.87;;;10.27;;
39554;SDS011;25231;48.746;9.234;2022-10-16T04:10:10;12.53;;;11.83;;
39554;SDS011;25231;48.746;9.234;2022-10-16T04:12:35;10.83;;;10.33;;
39554;SDS011;25231;48.746;9.234;2022-10-16T04:15:01;11.00;;;10.40;;
39554;SDS011;25231;48.746;9.234;2022-10-16T04:17:26;10.03;;;9.37;;
39554;SDS011;25231;48.746;9.234;2022-10-16T04:19:52;8.57;;;8.03;;
39554;SDS011;25231;48.746;9.234;2022-10-16T04:22:17;9.60;;;8.90;;
39554;SDS011;25231;48.746;9.234;2022-10-16T04:24:43;9.40;;;8.80;;
39554;SDS011;25231;48.746;9.234;2022-10-16T04:27:08;8.33;;;7.83;;
39554;SDS011;25231;48.746;9.234;2022-10-16T04:29:34;8.33;;;7.93;;
39554;SDS011;25231;48.746;9.234;2022-10-16T04:31:59;10.43;;;9.83;;
39554;SDS011;25231;48.746;9.234;2022-10-16T04:34:24;9.43;;;8.63;;
39554;SDS011;25231;48.746;9.234;2022-10-16T04:36:50;10.53;;;9.87;;
39554;SDS011;25231;48.746;9.234;2022-10-16T04:39:15;10.47;;;9.67;;
39554;SDS011;25231;48.746;9.234;2022-10-16T04:41:42;9.73;;;9.03;;
39554;SDS011;25231;48.746;9.234;2022-10-16T04:44:07;9.70;;;8.90;;
39554;SDS011;25231;48.746;9.234;2022-10-16T04:46:33;8.97;;;8.37;;
39554;SDS011;25231;48.746;9.234;2022-10-16T04:48:58;9.77;;;9.10;;
39554;SDS011;25231;48.746;9.234;2022-10-16T04:51:24;8.90;;;8.33;;
39554;SDS011;25231;48.746;9.234;2022-10-16T04:53:50;8.50;;;7.67;;
39554;SDS011;25231;48.746;9.234;2022-10-16T04:56:16;8.43;;;8.03;;
39554;SDS011;25231;48.746;9.234;2022-10-16T04:58:42;7.97;;;7.40;;
39554;SDS011;25231;48.746;9.234;2022-10-16T05:01:07;8.73;;;8.23;;
39554;SDS011;25231;48.746;9.234;2022-10-16T05:03:33;8.43;;;7.87;;
39554;SDS011;25231;48.746;9.234;2022-10-16T05:05:59;9.67;;;9.00;;
39554;SDS011;25231;48.746;9.234;2022-10-16T05:08:24;9.17;;;8.50;;
39554;SDS011;25231;48.746;9.234;2022-10-16T05:10:49;8.60;;;8.10;;
39554;SDS011;25231;48.746;9.234;2022-10-16T05:13:15;13.77;;;13.00;;
39554;SDS011;25231;48.746;9.234;2022-10-16T05:15:40;16.90;;;16.00;;
39554;SDS011;25231;48.746;9.234;2022-10-16T05:18:06;18.10;;;16.87;;
39554;SDS011;25231;48.746;9.234;2022-10-16T05:20:31;20.23;;;18.80;;
39554;SDS011;25231;48.746;9.234;2022-10-16T05:22:57;17.37;;;16.40;;
39554;SDS011;25231;48.746;9.234;2022-10-16T05:25:22;16.63;;;15.73;;
39554;SDS011;25231;48.746;9.234;2022-10-16T05:27:48;17.60;;;16.50;;
39554;SDS011;25231;48.746;9.234;2022-10-16T05:30:15;15.77;;;14.97;;
39554;SDS011;25231;48.746;9.234;2022-10-16T05:32:41;14.97;;;14.00;;
39554;SDS011;25231;48.746;9.234;2022-10-16T05:35:07;12.80;;;12.10;;
39554;SDS011;25231;48.746;9.234;2022-10-16T05:37:32;13.73;;;12.77;;
39554;SDS011;25231;48.746;9.234;2022-10-16T05:39:58;13.10;;;12.20;;
39554;SDS011;25231;48.746;9.234;2022-10-16T05:42:23;10.70;;;10.13;;
39554;SDS011;25231;48.746;9.234;2022-10-16T05:44:49;10.33;;;9.83;;
39554;SDS011;25231;48.746;9.234;2022-10-16T05:47:14;10.20;;;9.60;;
39554;SDS011;25231;48.746;9.234;2022-10-16T05:49:39;10.93;;;10.33;;
39554;SDS011;25231;48.746;9.234;2022-10-16T05:52:05;9.13;;;8.67;;
39554;SDS011;25231;48.746;9.234;2022-10-16T05:54:31;10.87;;;10.23;;
39554;SDS011;25231;48.746;9.234;2022-10-16T05:56:56;12.00;;;10.70;;
39554;SDS011;25231;48.746;9.234;2022-10-16T05:59:22;11.90;;;11.20;;
39554;SDS011;25231;48.746;9.234;2022-10-16T06:01:47;10.13;;;9.33;;
39554;SDS011;25231;48.746;9.234;2022-10-16T06:04:13;9.27;;;8.37;;
39554;SDS011;25231;48.746;9.234;2022-10-16T06:06:38;10.93;;;10.23;;
39554;SDS011;25231;48.746;9.234;2022-10-16T06:09:04;14.80;;;13.90;;
39554;SDS011;25231;48.746;9.234;2022-10-16T06:11:30;16.37;;;15.37;;
39554;SDS011;25231;48.746;9.234;2022-10-16T06:13:58;21.57;;;20.33;;
39554;SDS011;25231;48.746;9.234;2022-10-16T06:16:27;18.00;;;16.93;;
39554;SDS011;25231;48.746;9.234;2022-10-16T06:18:53;20.33;;;19.23;;
39554;SDS011;25231;48.746;9.234;2022-10-16T06:21:21;13.73;;;12.53;;
39554;SDS011;25231;48.746;9.234;2022-10-16T06:23:50;6.87;;;6.47;;
39554;SDS011;25231;48.746;9.234;2022-10-16T06:26:16;6.47;;;5.97;;
39554;SDS011;25231;48.746;9.234;2022-10-16T06:28:44;9.97;;;9.17;;
39554;SDS011;25231;48.746;9.234;2022-10-16T06:31:11;10.70;;;10.10;;
39554;SDS011;25231;48.746;9.234;2022-10-16T06:33:37;9.07;;;8.57;;
39554;SDS011;25231;48.746;9.234;2022-10-16T06:36:10;14.27;;;13.27;;
39554;SDS011;25231;48.746;9.234;2022-10-16T06:38:40;11.07;;;10.47;;
39554;SDS011;25231;48.746;9.234;2022-10-16T06:41:07;22.87;;;21.67;;
39554;SDS011;25231;48.746;9.234;2022-10-16T06:43:34;33.30;;;31.50;;
39554;SDS011;25231;48.746;9.234;2022-10-16T06:46:03;19.60;;;18.47;;
39554;SDS011;25231;48.746;9.234;2022-10-16T06:48:30;12.00;;;11.30;;
39554;SDS011;25231;48.746;9.234;2022-10-16T06:51:00;10.23;;;9.43;;
39554;SDS011;25231;48.746;9.234;2022-10-16T06:53:36;11.47;;;10.80;;
39554;SDS011;25231;48.746;9.234;2022-10-16T06:56:22;15.63;;;14.83;;
39554;SDS011;25231;48.746;9.234;2022-10-16T06:58:49;15.50;;;14.70;;
39554;SDS011;25231;48.746;9.234;2022-10-16T07:01:16;11.60;;;11.00;;
39554;SDS011;25231;48.746;9.234;2022-10-16T07:03:43;9.20;;;8.70;;
39554;SDS011;25231;48.746;9.234;2022-10-16T07:06:10;7.20;;;6.70;;
39554;SDS011;25231;48.746;9.234;2022-10-16T07:08:38;7.10;;;6.80;;
39554;SDS011;25231;48.746;9.234;2022-10-16T07:11:07;8.53;;;8.00;;
39554;SDS011;25231;48.746;9.234;2022-10-16T07:13:38;9.27;;;8.77;;
39554;SDS011;25231;48.746;9.234;2022-10-16T07:16:06;13.33;;;12.50;;
39554;SDS011;25231;48.746;9.234;2022-10-16T07:18:31;15.50;;;14.70;;
39554;SDS011;25231;48.746;9.234;2022-10-16T07:21:04;14.53;;;13.53;;
39554;SDS011;25231;48.746;9.234;2022-10-16T07:23:30;37.43;;;34.60;;
39554;SDS011;25231;48.746;9.234;2022-10-16T07:25:55;7.40;;;6.90;;
39554;SDS011;25231;48.746;9.234;2022-10-16T07:28:21;8.27;;;7.77;;
39554;SDS011;25231;48.746;9.234;2022-10-16T07:30:47;9.13;;;8.57;;
39554;SDS011;25231;48.746;9.234;2022-10-16T07:33:12;9.60;;;8.90;;
39554;SDS011;25231;48.746;9.234;2022-10-16T07:35:38;9.43;;;8.90;;
39554;SDS011;25231;48.746;9.234;2022-10-16T07:38:13;22.80;;;20.90;;
39554;SDS011;25231;48.746;9.234;2022-10-16T07:40:38;6.10;;;5.60;;
39554;SDS011;25231;48.746;9.234;2022-10-16T07:43:04;4.93;;;4.53;;
39554;SDS011;25231;48.746;9.234;2022-10-16T07:45:30;4.90;;;4.70;;
39554;SDS011;25231;48.746;9.234;2022-10-16T07:47:55;10.82;;;10.27;;
39554;SDS011;25231;48.746;9.234;2022-10-16T07:50:21;13.50;;;12.57;;
39554;SDS011;25231;48.746;9.234;2022-10-16T07:52:46;9.88;;;9.38;;
39554;SDS011;25231;48.746;9.234;2022-10-16T07:55:12;12.40;;;11.70;;
39554;SDS011;25231;48.746;9.234;2022-10-16T07:57:37;14.93;;;14.13;;
39554;SDS011;25231;48.746;9.234;2022-10-16T08:00:03;14.00;;;13.20;;
39554;SDS011;25231;48.746;9.234;2022-10-16T08:02:28;16.50;;;15.63;;
39554;SDS011;25231;48.746;9.234;2022-10-16T08:04:54;16.80;;;16.00;;
39554;SDS011;25231;48.746;9.234;2022-10-16T08:07:19;11.63;;;10.97;;
39554;SDS011;25231;48.746;9.234;2022-10-16T08:09:48;8.97;;;8.50;;
39554;SDS011;25231;48.746;9.234;2022-10-16T08:12:14;11.88;;;9.15;;
39554;SDS011;25231;48.746;9.234;2022-10-16T08:14:40;11.90;;;11.20;;
39554;SDS011;25231;48.746;9.234;2022-10-16T08:17:05;11.83;;;11.23;;
39554;SDS011;25231;48.746;9.234;2022-10-16T08:19:31;23.67;;;22.33;;
39554;SDS011;25231;48.746;9.234;2022-10-16T08:21:56;13.50;;;12.80;;
39554;SDS011;25231;48.746;9.234;2022-10-16T08:24:22;11.65;;;11.02;;
39554;SDS011;25231;48.746;9.234;2022-10-16T08:26:47;8.65;;;8.05;;
39554;SDS011;25231;48.746;9.234;2022-10-16T08:29:13;10.57;;;9.57;;
39554;SDS011;25231;48.746;9.234;2022-10-16T08:31:39;13.45;;;11.77;;
39554;SDS011;25231;48.746;9.234;2022-10-16T08:34:05;10.95;;;10.23;;
39554;SDS011;25231;48.746;9.234;2022-10-16T08:36:30;10.30;;;9.70;;
39554;SDS011;25231;48.746;9.234;2022-10-16T08:38:55;12.48;;;11.63;;
39554;SDS011;25231;48.746;9.234;2022-10-16T08:49:36;38.95;;;36.72;;
39554;SDS011;25231;48.746;9.234;2022-10-16T08:52:03;51.33;;;48.60;;
39554;SDS011;25231;48.746;9.234;2022-10-16T08:56:56;40.75;;;38.65;;
39554;SDS011;25231;48.746;9.234;2022-10-16T08:59:26;32.67;;;31.00;;
39554;SDS011;25231;48.746;9.234;2022-10-16T09:01:51;29.02;;;27.50;;
39554;SDS011;25231;48.746;9.234;2022-10-16T09:07:04;24.35;;;23.05;;
39554;SDS011;25231;48.746;9.234;2022-10-16T09:10:13;24.42;;;23.00;;
39554;SDS011;25231;48.746;9.234;2022-10-16T09:15:54;23.60;;;22.08;;
39554;SDS011;25231;48.746;9.234;2022-10-16T09:18:35;30.33;;;28.67;;
39554;SDS011;25231;48.746;9.234;2022-10-16T09:23:38;25.77;;;23.20;;
39554;SDS011;25231;48.746;9.234;2022-10-16T09:26:04;19.13;;;18.02;;
39554;SDS011;25231;48.746;9.234;2022-10-16T09:28:34;28.88;;;27.30;;
39554;SDS011;25231;48.746;9.234;2022-10-16T09:30:59;24.35;;;22.88;;
39554;SDS011;25231;48.746;9.234;2022-10-16T09:33:25;26.17;;;24.77;;
39554;SDS011;25231;48.746;9.234;2022-10-16T09:35:57;27.52;;;26.10;;
39554;SDS011;25231;48.746;9.234;2022-10-16T09:38:31;33.97;;;32.20;;
39554;SDS011;25231;48.746;9.234;2022-10-16T09:40:59;31.58;;;29.95;;
39554;SDS011;25231;48.746;9.234;2022-10-16T09:43:33;33.65;;;31.67;;
39554;SDS011;25231;48.746;9.234;2022-10-16T09:46:06;41.70;;;39.47;;
39554;SDS011;25231;48.746;9.234;2022-10-16T09:48:50;36.80;;;34.72;;
39554;SDS011;25231;48.746;9.234;2022-10-16T09:51:22;34.55;;;32.60;;
39554;SDS011;25231;48.746;9.234;2022-10-16T09:53:54;30.13;;;28.52;;
39554;SDS011;25231;48.746;9.234;2022-10-16T09:56:23;37.95;;;35.92;;
39554;SDS011;25231;48.746;9.234;2022-10-16T09:58:52;21.00;;;19.50;;
39554;SDS011;25231;48.746;9.234;2022-10-16T10:01:23;20.88;;;19.77;;
39554;SDS011;25231;48.746;9.234;2022-10-16T10:03:55;28.38;;;26.63;;
39554;SDS011;25231;48.746;9.234;2022-10-16T10:06:36;16.92;;;16.02;;
39554;SDS011;25231;48.746;9.234;2022-10-16T10:09:13;15.27;;;14.38;;
39554;SDS011;25231;48.746;9.234;2022-10-16T10:11:55;32.95;;;31.05;;
39554;SDS011;25231;48.746;9.234;2022-10-16T10:16:50;51.30;;;48.45;;
39554;SDS011;25231;48.746;9.234;2022-10-16T10:19:22;103.50;;;97.95;;
39554;SDS011;25231;48.746;9.234;2022-10-16T10:21:49;120.70;;;114.07;;
39554;SDS011;25231;48.746;9.234;2022-10-16T10:24:17;142.35;;;134.75;;
39554;SDS011;25231;48.746;9.234;2022-10-16T10:27:07;126.15;;;119.50;;
39554;SDS011;25231;48.746;9.234;2022-10-16T10:35:01;95.82;;;90.80;;
39554;SDS011;25231;48.746;9.234;2022-10-16T10:40:04;185.93;;;175.82;;
39554;SDS011;25231;48.746;9.234;2022-10-16T10:45:41;43.10;;;40.70;;
39554;SDS011;25231;48.746;9.234;2022-10-16T10:48:18;33.40;;;31.58;;
39554;SDS011;25231;48.746;9.234;2022-10-16T10:50:52;25.42;;;23.77;;
39554;SDS011;25231;48.746;9.234;2022-10-16T10:54:09;24.88;;;23.65;;
39554;SDS011;25231;48.746;9.234;2022-10-16T10:56:21;28.00;;;26.52;;
39554;SDS011;25231;48.746;9.234;2022-10-16T11:01:56;25.45;;;24.05;;
39554;SDS011;25231;48.746;9.234;2022-10-16T11:07:27;46.13;;;43.63;;
39554;SDS011;25231;48.746;9.234;2022-10-16T11:10:09;43.17;;;40.75;;
39554;SDS011;25231;48.746;9.234;2022-10-16T11:12:42;40.90;;;38.55;;
39554;SDS011;25231;48.746;9.234;2022-10-16T11:15:24;43.47;;;41.17;;
39554;SDS011;25231;48.746;9.234;2022-10-16T11:17:55;33.08;;;31.27;;
39554;SDS011;25231;48.746;9.234;2022-10-16T11:20:31;34.92;;;33.13;;
39554;SDS011;25231;48.746;9.234;2022-10-16T11:23:23;28.67;;;27.05;;
39554;SDS011;25231;48.746;9.234;2022-10-16T11:25:50;25.00;;;23.67;;
39554;SDS011;25231;48.746;9.234;2022-10-16T11:31:28;40.13;;;37.63;;
39554;SDS011;25231;48.746;9.234;2022-10-16T11:33:53;32.17;;;30.52;;
39554;SDS011;25231;48.746;9.234;2022-10-16T11:36:25;29.65;;;28.15;;
39554;SDS011;25231;48.746;9.234;2022-10-16T11:42:21;18.90;;;17.92;;
39554;SDS011;25231;48.746;9.234;2022-10-16T11:47:54;115.35;;;109.22;;
39554;SDS011;25231;48.746;9.234;2022-10-16T11:53:23;283.98;;;268.48;;
39554;SDS011;25231;48.746;9.234;2022-10-16T11:56:07;294.02;;;277.65;;
39554;SDS011;25231;48.746;9.234;2022-10-16T11:58:37;318.42;;;300.92;;
39554;SDS011;25231;48.746;9.234;2022-10-16T12:09:33;132.57;;;125.78;;
39554;SDS011;25231;48.746;9.234;2022-10-16T12:12:01;101.10;;;95.75;;
39554;SDS011;25231;48.746;9.234;2022-10-16T12:14:37;42.55;;;39.95;;
39554;SDS011;25231;48.746;9.234;2022-10-16T12:20:12;32.83;;;31.17;;
39554;SDS011;25231;48.746;9.234;2022-10-16T12:22:49;36.55;;;34.63;;
39554;SDS011;25231;48.746;9.234;2022-10-16T12:25:27;142.10;;;134.48;;
39554;SDS011;25231;48.746;9.234;2022-10-16T12:28:20;33.90;;;32.10;;
39554;SDS011;25231;48.746;9.234;2022-10-16T12:31:01;147.02;;;139.20;;
39554;SDS011;25231;48.746;9.234;2022-10-16T12:33:32;89.78;;;84.88;;
39554;SDS011;25231;48.746;9.234;2022-10-16T12:35:59;156.63;;;148.35;;
39554;SDS011;25231;48.746;9.234;2022-10-16T12:38:46;161.13;;;152.45;;
39554;SDS011;25231;48.746;9.234;2022-10-16T12:41:23;138.20;;;130.80;;
39554;SDS011;25231;48.746;9.234;2022-10-16T12:43:50;101.93;;;96.35;;
39554;SDS011;25231;48.746;9.234;2022-10-16T12:48:42;147.82;;;139.80;;
39554;SDS011;25231;48.746;9.234;2022-10-16T12:51:20;131.82;;;124.63;;
39554;SDS011;25231;48.746;9.234;2022-10-16T12:54:11;115.40;;;109.00;;
39554;SDS011;25231;48.746;9.234;2022-10-16T12:56:42;119.53;;;112.30;;
39554;SDS011;25231;48.746;9.234;2022-10-16T13:16:57;50.40;;;47.55;;
39554;SDS011;25231;48.746;9.234;2022-10-16T13:19:24;82.88;;;78.30;;
39554;SDS011;25231;48.746;9.234;2022-10-16T13:22:17;33.13;;;31.27;;
39554;SDS011;25231;48.746;9.234;2022-10-16T13:24:53;51.65;;;48.95;;
39554;SDS011;25231;48.746;9.234;2022-10-16T13:30:24;110.78;;;105.00;;
39554;SDS011;25231;48.746;9.234;2022-10-16T13:35:37;139.77;;;132.57;;
39554;SDS011;25231;48.746;9.234;2022-10-16T13:38:03;159.80;;;151.40;;
39554;SDS011;25231;48.746;9.234;2022-10-16T13:40:36;92.65;;;87.43;;
39554;SDS011;25231;48.746;9.234;2022-10-16T13:43:01;161.27;;;152.68;;
39554;SDS011;25231;48.746;9.234;2022-10-16T13:45:27;184.88;;;175.27;;
39554;SDS011;25231;48.746;9.234;2022-10-16T13:48:06;180.10;;;170.68;;
39554;SDS011;25231;48.746;9.234;2022-10-16T13:50:37;172.73;;;163.73;;
39554;SDS011;25231;48.746;9.234;2022-10-16T13:53:06;231.43;;;219.02;;
39554;SDS011;25231;48.746;9.234;2022-10-16T13:55:37;171.75;;;162.52;;
39554;SDS011;25231;48.746;9.234;2022-10-16T13:58:13;224.07;;;212.48;;
39554;SDS011;25231;48.746;9.234;2022-10-16T14:00:39;95.57;;;90.50;;
39554;SDS011;25231;48.746;9.234;2022-10-16T14:03:18;80.03;;;75.68;;
39554;SDS011;25231;48.746;9.234;2022-10-16T14:05:49;113.65;;;107.53;;
39554;SDS011;25231;48.746;9.234;2022-10-16T14:08:17;165.27;;;156.07;;
39554;SDS011;25231;48.746;9.234;2022-10-16T14:10:43;50.50;;;47.80;;
39554;SDS011;25231;48.746;9.234;2022-10-16T14:13:15;58.75;;;55.38;;
39554;SDS011;25231;48.746;9.234;2022-10-16T14:15:46;115.47;;;109.47;;
39554;SDS011;25231;48.746;9.234;2022-10-16T14:18:18;172.82;;;163.70;;
39554;SDS011;25231;48.746;9.234;2022-10-16T14:20:47;293.02;;;276.88;;
39554;SDS011;25231;48.746;9.234;2022-10-16T14:23:28;258.77;;;244.82;;
39554;SDS011;25231;48.746;9.234;2022-10-16T14:26:17;212.02;;;200.70;;
39554;SDS011;25231;48.746;9.234;2022-10-16T14:28:44;230.18;;;217.85;;
39554;SDS011;25231;48.746;9.234;2022-10-16T14:31:32;195.88;;;185.73;;
39554;SDS011;25231;48.746;9.234;2022-10-16T14:33:58;150.95;;;143.15;;
39554;SDS011;25231;48.746;9.234;2022-10-16T14:36:24;142.55;;;135.13;;
39554;SDS011;25231;48.746;9.234;2022-10-16T14:39:02;111.75;;;105.80;;
39554;SDS011;25231;48.746;9.234;2022-10-16T14:41:42;160.65;;;151.93;;
39554;SDS011;25231;48.746;9.234;2022-10-16T14:44:10;193.10;;;182.85;;
39554;SDS011;25231;48.746;9.234;2022-10-16T14:46:37;173.95;;;164.95;;
39554;SDS011;25231;48.746;9.234;2022-10-16T14:51:36;116.78;;;110.43;;
39554;SDS011;25231;48.746;9.234;2022-10-16T14:54:07;256.85;;;241.55;;
39554;SDS011;25231;48.746;9.234;2022-10-16T14:56:45;149.80;;;141.45;;
39554;SDS011;25231;48.746;9.234;2022-10-16T14:59:21;333.20;;;314.65;;
39554;SDS011;25231;48.746;9.234;2022-10-16T15:02:25;392.05;;;369.92;;
39554;SDS011;25231;48.746;9.234;2022-10-16T15:04:58;493.35;;;464.70;;
39554;SDS011;25231;48.746;9.234;2022-10-16T15:07:45;395.92;;;373.40;;
39554;SDS011;25231;48.746;9.234;2022-10-16T15:10:11;383.10;;;361.55;;
39554;SDS011;25231;48.746;9.234;2022-10-16T15:12:38;284.90;;;269.20;;
39554;SDS011;25231;48.746;9.234;2022-10-16T15:17:47;361.67;;;341.30;;
39554;SDS011;25231;48.746;9.234;2022-10-16T15:20:14;406.30;;;383.65;;
39554;SDS011;25231;48.746;9.234;2022-10-16T15:22:39;404.65;;;382.13;;
39554;SDS011;25231;48.746;9.234;2022-10-16T15:27:54;305.65;;;288.98;;
39554;SDS011;25231;48.746;9.234;2022-10-16T15:30:20;259.30;;;245.50;;
39554;SDS011;25231;48.746;9.234;2022-10-16T15:32:46;307.63;;;290.90;;
39554;SDS011;25231;48.746;9.234;2022-10-16T15:35:11;393.67;;;371.30;;
39554;SDS011;25231;48.746;9.234;2022-10-16T15:37:36;389.33;;;367.58;;
39554;SDS011;25231;48.746;9.234;2022-10-16T15:40:02;420.48;;;396.55;;
39554;SDS011;25231;48.746;9.234;2022-10-16T15:42:28;424.88;;;400.55;;
39554;SDS011;25231;48.746;9.234;2022-10-16T15:44:53;121.80;;;115.32;;
39554;SDS011;25231;48.746;9.234;2022-10-16T15:47:18;50.78;;;47.97;;
39554;SDS011;25231;48.746;9.234;2022-10-16T15:49:44;45.05;;;42.40;;
39554;SDS011;25231;48.746;9.234;2022-10-16T15:52:10;63.83;;;59.97;;
39554;SDS011;25231;48.746;9.234;2022-10-16T15:54:36;65.20;;;61.60;;
39554;SDS011;25231;48.746;9.234;2022-10-16T15:57:01;45.90;;;43.28;;
39554;SDS011;25231;48.746;9.234;2022-10-16T15:59:27;14.93;;;13.90;;
39554;SDS011;25231;48.746;9.234;2022-10-16T16:01:52;29.48;;;27.92;;
39554;SDS011;25231;48.746;9.234;2022-10-16T16:04:17;13.32;;;12.57;;
39554;SDS011;25231;48.746;9.234;2022-10-16T16:06:43;14.27;;;13.30;;
39554;SDS011;25231;48.746;9.234;2022-10-16T16:09:12;8.30;;;7.80;;
39554;SDS011;25231;48.746;9.234;2022-10-16T16:11:38;24.88;;;23.42;;
39554;SDS011;25231;48.746;9.234;2022-10-16T16:14:05;9.07;;;8.23;;
39554;SDS011;25231;48.746;9.234;2022-10-16T16:16:31;18.80;;;17.77;;
39554;SDS011;25231;48.746;9.234;2022-10-16T16:19:02;41.13;;;38.95;;
39554;SDS011;25231;48.746;9.234;2022-10-16T16:21:28;43.90;;;41.47;;
39554;SDS011;25231;48.746;9.234;2022-10-16T16:23:54;40.85;;;38.53;;
39554;SDS011;25231;48.746;9.234;2022-10-16T16:26:26;22.58;;;21.35;;
39554;SDS011;25231;48.746;9.234;2022-10-16T16:28:54;18.45;;;17.33;;